»·PEaware :: UAL576 KGEG-KRNO

UAL576 :: KGEG-KRNO

FLIGHT INFORMATION

Flight Status: Arrived
Operator:
United Airlines
More flights by this operator :: More flights under this callsign
Pilot: Anonymous 8274 (8274)
Aircraft: BOEING 737-200
(B732)
More flights by this aircraft type
Origin: KGEG Spokane Intl
United States
Destination: KRNO Reno/Tahoe Intl
United States
More flights between these airports :: More routes between these airports
Route: GEG5 GEG J3 IMB J523 REO J7 GASSI ANAHO2
File this flight plan on PilotEdge
Remarks:
Altitude:
(Current/Filed)
32,000ft
Speed:
(Current/Filed)
460kts
Departed: 12-Jun-19 02:09 PM
Arrived: 12-Jun-19 03:33 PM
Distance/Time
Traveled:
496nm/1:23
Distance/Time
To Go:
Arrived

Flight Plot

Page will automatically refresh every two minutes.


Map Options




Map Legend


Flown Route
Filed Route
Departure Airport
Arrival Airport
Navaid (VOR, NDB)
Fix

Horizontal Profiles

Position Reports

Time Latitude Longitude Heading Altitude Ground
Speed
12-Jun-19 13:03 47.623391 -117.539256 0 2368ft 0kts
12-Jun-19 13:04 47.623391 -117.539256 0 2368ft 0kts
12-Jun-19 13:05 47.623391 -117.539256 0 2368ft 0kts
12-Jun-19 13:06 47.623391 -117.539256 0 2368ft 0kts
12-Jun-19 13:07 47.623391 -117.539256 0 2368ft 0kts
12-Jun-19 13:08 47.623391 -117.539256 0 2368ft 0kts
12-Jun-19 13:09 47.623391 -117.539256 0 2368ft 0kts
12-Jun-19 13:10 47.623391 -117.539256 0 2368ft 0kts
12-Jun-19 13:11 47.623391 -117.539256 0 2368ft 0kts
12-Jun-19 13:12 47.623391 -117.539256 0 2368ft 0kts
12-Jun-19 13:13 47.623391 -117.539256 0 2368ft 0kts
12-Jun-19 13:14 47.623391 -117.539256 0 2368ft 0kts
12-Jun-19 13:15 47.623391 -117.539256 0 2368ft 0kts
12-Jun-19 13:16 47.623391 -117.539256 0 2368ft 0kts
12-Jun-19 13:16 47.623391 -117.539256 0 2368ft 0kts
12-Jun-19 13:18 47.623391 -117.539256 0 2368ft 0kts
12-Jun-19 13:19 47.623391 -117.539256 0 2368ft 0kts
12-Jun-19 13:19 47.623391 -117.539256 0 2368ft 0kts
12-Jun-19 13:20 47.623391 -117.539256 0 2368ft 0kts
12-Jun-19 13:22 47.623391 -117.539256 0 2368ft 0kts
12-Jun-19 13:22 47.623391 -117.539256 0 2368ft 0kts
12-Jun-19 13:23 47.623391 -117.539256 0 2368ft 0kts
12-Jun-19 13:24 47.623391 -117.539256 0 2368ft 0kts
12-Jun-19 13:25 47.623391 -117.539256 0 2368ft 0kts
12-Jun-19 13:26 47.623391 -117.539256 0 2368ft 0kts
12-Jun-19 13:27 47.623391 -117.539256 0 2368ft 0kts
12-Jun-19 13:28 47.623391 -117.539256 0 2368ft 0kts
12-Jun-19 13:29 47.623391 -117.539256 0 2368ft 0kts
12-Jun-19 13:30 47.623391 -117.539256 0 2368ft 0kts
12-Jun-19 13:31 47.623391 -117.539256 0 2368ft 0kts
12-Jun-19 13:32 47.623391 -117.539256 0 2368ft 0kts
12-Jun-19 13:33 47.623391 -117.539256 0 2368ft 0kts
12-Jun-19 13:34 47.623391 -117.539256 0 2368ft 0kts
12-Jun-19 13:35 47.623391 -117.539256 0 2368ft 0kts
12-Jun-19 13:36 47.623391 -117.539256 0 2368ft 0kts
12-Jun-19 13:37 47.623391 -117.539256 0 2368ft 0kts
12-Jun-19 13:38 47.623391 -117.539256 0 2368ft 0kts
12-Jun-19 13:39 47.623391 -117.539256 0 2368ft 0kts
12-Jun-19 13:40 47.623391 -117.539256 0 2368ft 0kts
12-Jun-19 13:41 47.623391 -117.539256 0 2368ft 0kts
12-Jun-19 13:42 47.623391 -117.539256 0 2368ft 0kts
12-Jun-19 13:43 47.623391 -117.539256 0 2368ft 0kts
12-Jun-19 13:44 47.623391 -117.539256 0 2368ft 0kts
12-Jun-19 13:45 47.623391 -117.539256 0 2368ft 0kts
12-Jun-19 13:46 47.623391 -117.539256 0 2368ft 0kts
12-Jun-19 13:47 47.623391 -117.539256 0 2368ft 0kts
12-Jun-19 13:48 47.623391 -117.539256 0 2368ft 0kts
12-Jun-19 13:49 47.623391 -117.539256 0 2368ft 0kts
12-Jun-19 13:50 47.623391 -117.539256 0 2368ft 0kts
12-Jun-19 13:51 47.623391 -117.539256 0 2368ft 0kts
12-Jun-19 13:52 47.623391 -117.539256 0 2368ft 0kts
12-Jun-19 13:53 47.623391 -117.539256 0 2368ft 0kts
12-Jun-19 13:54 47.623089 -117.539260 0 2368ft 2kts
12-Jun-19 13:55 47.622805 -117.539613 89 2368ft 0kts
12-Jun-19 13:56 47.622805 -117.539612 89 2368ft 0kts
12-Jun-19 13:57 47.622805 -117.539612 89 2368ft 0kts
12-Jun-19 13:58 47.622805 -117.539612 89 2368ft 0kts
12-Jun-19 13:59 47.622805 -117.539612 89 2368ft 0kts
12-Jun-19 14:00 47.622648 -117.538770 98 2368ft 0kts
12-Jun-19 14:01 47.621989 -117.537176 134 2368ft 9kts
12-Jun-19 14:02 47.623865 -117.533409 45 2368ft 15kts
12-Jun-19 14:03 47.627215 -117.528355 44 2368ft 19kts
12-Jun-19 14:04 47.631102 -117.522479 44 2368ft 18kts
12-Jun-19 14:05 47.631900 -117.519471 134 2368ft 0kts
12-Jun-19 14:06 47.631900 -117.519471 134 2368ft 0kts
12-Jun-19 14:07 47.630013 -117.520079 225 2368ft 32kts
12-Jun-19 14:08 47.605254 -117.557755 227 3227ft 163kts
12-Jun-19 14:09 47.569436 -117.616664 228 4568ft 236kts
12-Jun-19 14:10 47.521071 -117.695094 224 7037ft 283kts
12-Jun-19 14:11 47.470652 -117.775500 220 11070ft 260kts
12-Jun-19 14:12 47.383987 -117.785091 183 12213ft 354kts
12-Jun-19 14:13 47.289262 -117.803577 211 14857ft 345kts
12-Jun-19 14:14 47.205272 -117.874835 221 17148ft 351kts
12-Jun-19 14:15 47.121248 -117.952216 202 19179ft 375kts
12-Jun-19 14:16 47.020419 -117.997138 208 20999ft 381kts
12-Jun-19 14:17 46.922631 -118.060325 212 22633ft 389kts
12-Jun-19 14:18 46.827129 -118.127311 212 24046ft 397kts
12-Jun-19 14:19 46.727762 -118.200390 215 25360ft 403kts
12-Jun-19 14:20 46.627817 -118.277065 215 26494ft 412kts
12-Jun-19 14:21 46.525554 -118.353694 215 27735ft 414kts
12-Jun-19 14:22 46.422808 -118.428340 215 28974ft 413kts
12-Jun-19 14:23 46.319518 -118.501138 215 30075ft 413kts
12-Jun-19 14:24 46.216345 -118.572581 215 31205ft 408kts
12-Jun-19 14:25 46.113998 -118.643323 215 32012ft 411kts
12-Jun-19 14:26 46.015472 -118.712243 214 32035ft 432kts
12-Jun-19 14:27 45.905422 -118.790480 214 32027ft 445kts
12-Jun-19 14:28 45.797165 -118.868811 216 32020ft 439kts
12-Jun-19 14:29 45.690127 -118.951369 217 32019ft 436kts
12-Jun-19 14:30 45.583674 -119.033171 217 32001ft 434kts
12-Jun-19 14:31 45.477770 -119.114288 217 32019ft 431kts
12-Jun-19 14:32 45.372637 -119.194495 217 32019ft 429kts
12-Jun-19 14:33 45.267841 -119.274181 217 32019ft 427kts
12-Jun-19 14:34 45.163465 -119.353345 217 32019ft 425kts
12-Jun-19 14:35 45.059469 -119.431948 217 32019ft 424kts
12-Jun-19 14:36 44.955520 -119.510298 217 32062ft 421kts
12-Jun-19 14:37 44.848369 -119.568816 204 32068ft 434kts
12-Jun-19 14:38 44.735327 -119.621976 208 32065ft 427kts
12-Jun-19 14:39 44.625933 -119.664721 185 32086ft 449kts
12-Jun-19 14:40 44.515810 -119.572797 138 32081ft 486kts
12-Jun-19 14:41 44.410131 -119.457350 150 32082ft 480kts
12-Jun-19 14:42 44.299276 -119.352392 150 32084ft 482kts
12-Jun-19 14:43 44.189041 -119.257391 155 32074ft 479kts
12-Jun-19 14:44 44.074710 -119.162441 154 32075ft 478kts
12-Jun-19 14:45 43.960759 -119.067779 154 32077ft 478kts
12-Jun-19 14:46 43.851937 -118.977284 153 32074ft 481kts
12-Jun-19 14:47 43.738776 -118.876936 151 32126ft 487kts
12-Jun-19 14:48 43.626455 -118.770647 150 32132ft 493kts
12-Jun-19 14:49 43.512827 -118.662826 150 32134ft 497kts
12-Jun-19 14:50 43.397870 -118.553972 150 32136ft 501kts
12-Jun-19 14:51 43.280624 -118.449648 153 32138ft 503kts
12-Jun-19 14:52 43.163733 -118.350028 153 32121ft 505kts
12-Jun-19 14:53 43.045369 -118.248898 153 32101ft 505kts
12-Jun-19 14:54 42.926492 -118.147009 153 32103ft 504kts
12-Jun-19 14:55 42.816314 -118.052576 153 32099ft 503kts
12-Jun-19 14:56 42.698323 -117.951443 153 32101ft 502kts
12-Jun-19 14:57 42.580315 -117.850300 153 32103ft 501kts
12-Jun-19 14:58 42.456272 -117.835984 211 32126ft 436kts
12-Jun-19 14:59 42.347273 -117.904932 215 32104ft 432kts
12-Jun-19 15:00 42.246857 -117.990103 221 32104ft 425kts
12-Jun-19 15:01 42.150510 -118.080376 228 32107ft 417kts
12-Jun-19 15:02 42.060834 -118.179972 223 32103ft 421kts
12-Jun-19 15:03 41.962033 -118.265705 214 32109ft 432kts
12-Jun-19 15:04 41.855466 -118.331489 213 32096ft 433kts
12-Jun-19 15:05 41.746084 -118.398623 213 32095ft 433kts
12-Jun-19 15:06 41.633478 -118.458898 210 32096ft 438kts
12-Jun-19 15:07 41.518097 -118.513573 207 32148ft 442kts
12-Jun-19 15:08 41.400867 -118.563418 206 32149ft 444kts
12-Jun-19 15:10 41.284534 -118.617646 208 32149ft 443kts
12-Jun-19 15:11 41.173495 -118.671619 210 32163ft 442kts
12-Jun-19 15:12 41.059339 -118.731598 210 32162ft 442kts
12-Jun-19 15:13 40.945012 -118.792035 214 32156ft 437kts
12-Jun-19 15:14 40.843923 -118.870540 221 32102ft 427kts
12-Jun-19 15:15 40.745684 -118.954129 221 30050ft 416kts
12-Jun-19 15:16 40.649937 -119.035275 218 28053ft 406kts
12-Jun-19 15:17 40.549870 -119.102210 210 26102ft 402kts
12-Jun-19 15:18 40.448504 -119.158655 210 24211ft 391kts
12-Jun-19 15:19 40.348433 -119.210831 206 22377ft 384kts
12-Jun-19 15:20 40.248998 -119.256623 206 20571ft 374kts
12-Jun-19 15:21 40.152914 -119.302856 208 18525ft 363kts
12-Jun-19 15:22 40.060416 -119.350357 208 16512ft 353kts
12-Jun-19 15:23 39.974162 -119.403971 231 16040ft 337kts
12-Jun-19 15:24 39.938645 -119.510758 255 15800ft 325kts
12-Jun-19 15:25 39.908887 -119.621878 253 13216ft 320kts
12-Jun-19 15:26 39.847527 -119.702644 221 10140ft 338kts
12-Jun-19 15:27 39.769920 -119.744416 182 9928ft 291kts
12-Jun-19 15:28 39.696948 -119.768673 181 8604ft 262kts
12-Jun-19 15:29 39.626288 -119.767324 178 7355ft 224kts
12-Jun-19 15:29 39.581665 -119.768876 180 6330ft 156kts
12-Jun-19 15:31 39.532181 -119.769139 179 4898ft 152kts
12-Jun-19 15:31 39.498573 -119.769263 179 4418ft 111kts
12-Jun-19 15:32 39.492558 -119.771245 299 4417ft 0kts
12-Jun-19 15:34 39.494651 -119.771537 0 4417ft 11kts
12-Jun-19 15:43 39.507417 -119.773482 198 4417ft 0kts
12-Jun-19 15:44 39.507417 -119.773482 198 4417ft 0kts
12-Jun-19 15:45 39.507417 -119.773482 198 4417ft 0kts
12-Jun-19 15:46 39.507417 -119.773482 198 4417ft 0kts

Navigation Log

Ident Type
Flight plan parsing failed, navigation log unavailable